Aérodrome :
LOGIN :

S'inscrire | Disclaimer

   EN    FR    IT 

 










Légende :    VFR   VFR Marginal   IFR   IFR Intensif   IFR Très Intensif
Visi : 
Plafond : 
>= 8 km
>= 3000ft
5 à 8 km
1000 à 3000 ft
1500m à 5 km
500 à 1000 ft
800 à 1500m
200 à 500 ft
< 800m
< 200 ft
Symboles :   Orages  Brouillard  Fortes neiges  Fortes précipitations  Vent > 20 kt
SIGMETs :   Divers  Orages  Givrage  Turbulence  Onde Orograph.  Cendres Volcan.






- Altitude de l'aérodrome : 616 ft
- Code IATA : PUF


LFBP - Pau

DERNIER METAR :
  • 100000Z AUTO 14003KT CAVOK 12/07 Q1018 NOSIG

METARs EXPIRÉS :
  • 092330Z AUTO 08005KT CAVOK 13/08 Q1018 NOSIG
  • 092300Z AUTO 09004KT CAVOK 14/08 Q1018 NOSIG
  • 092230Z AUTO VRB03KT CAVOK 15/08 Q1019 NOSIG
  • 092200Z AUTO VRB03KT 9999 SCT088 16/08 Q1019 NOSIG
  • 092130Z AUTO VRB03KT 9999 BKN092 BKN110 16/08 Q1018 NOSIG

TAF TAF LFBP
Valide du 10 à 00h jusqu'au 11 à 00h UTC


092300Z 1000/1024 11004KT CAVOK
BECMG 1009/1011 04006KT
BECMG 1016/1018 VRB02KT
TEMPO 1015/1019 SCT060TCU
PROB40
TEMPO 1016/1019 4000 SHRA BKN050TCU
PROB30
TEMPO 1017/1019 -TSRA BKN060CB



MET'MAP, la Météo Aéronautique d'un coup d'oeil ! - Copyright ORBIFLY Décembre 2007 - Disclaimer

ORBIFLY MET'MAP TEAM :

Programmation & Développement : Alexandra Zaïnal
Sur une idée originale de : Baudouin d'Aumeries
Assistance à la programmation : Marc-Olivier Méhu
Soutien technique & logistique : Manuel Goepfert

Contact : metmap@orbifly.com




SOURCES & CREDITS :

   NOAA